sensor_id;sensor_type;location;lat;lon;timestamp;pressure;altitude;pressure_sealevel;temperature
11424;BMP180;5768;51.476;7.210;2022-09-21T00:00:10;101236.00;;;11.90
11424;BMP180;5768;51.476;7.210;2022-09-21T00:05:14;101232.00;;;11.80
11424;BMP180;5768;51.476;7.210;2022-09-21T00:10:17;101227.00;;;11.80
11424;BMP180;5768;51.476;7.210;2022-09-21T00:15:20;101229.00;;;11.80
11424;BMP180;5768;51.476;7.210;2022-09-21T00:20:25;101233.00;;;11.80
11424;BMP180;5768;51.476;7.210;2022-09-21T00:25:27;101233.00;;;11.70
11424;BMP180;5768;51.476;7.210;2022-09-21T00:30:30;101231.00;;;11.80
11424;BMP180;5768;51.476;7.210;2022-09-21T00:35:33;101238.00;;;11.80
11424;BMP180;5768;51.476;7.210;2022-09-21T00:40:35;101234.00;;;11.70
11424;BMP180;5768;51.476;7.210;2022-09-21T00:45:37;101246.00;;;11.60
11424;BMP180;5768;51.476;7.210;2022-09-21T00:50:47;101244.00;;;11.60
11424;BMP180;5768;51.476;7.210;2022-09-21T00:55:53;101240.00;;;11.50
11424;BMP180;5768;51.476;7.210;2022-09-21T01:00:58;101240.00;;;11.40
11424;BMP180;5768;51.476;7.210;2022-09-21T01:06:03;101249.00;;;11.40
11424;BMP180;5768;51.476;7.210;2022-09-21T01:11:22;101240.00;;;11.40
11424;BMP180;5768;51.476;7.210;2022-09-21T01:16:39;101237.00;;;11.30
11424;BMP180;5768;51.476;7.210;2022-09-21T01:21:51;101242.00;;;11.30
11424;BMP180;5768;51.476;7.210;2022-09-21T01:33:03;101240.00;;;11.30
11424;BMP180;5768;51.476;7.210;2022-09-21T01:38:09;101249.00;;;11.20
11424;BMP180;5768;51.476;7.210;2022-09-21T01:43:19;101241.00;;;11.20
11424;BMP180;5768;51.476;7.210;2022-09-21T01:48:33;101242.00;;;11.20
11424;BMP180;5768;51.476;7.210;2022-09-21T01:53:42;101241.00;;;11.30
11424;BMP180;5768;51.476;7.210;2022-09-21T01:58:51;101252.00;;;11.40
11424;BMP180;5768;51.476;7.210;2022-09-21T02:04:02;101262.00;;;11.30
11424;BMP180;5768;51.476;7.210;2022-09-21T02:09:07;101241.00;;;11.30
11424;BMP180;5768;51.476;7.210;2022-09-21T02:14:11;101251.00;;;11.30
11424;BMP180;5768;51.476;7.210;2022-09-21T02:19:25;101247.00;;;11.20
11424;BMP180;5768;51.476;7.210;2022-09-21T02:24:37;101248.00;;;11.20
11424;BMP180;5768;51.476;7.210;2022-09-21T02:29:49;101253.00;;;11.30
11424;BMP180;5768;51.476;7.210;2022-09-21T02:35:01;101244.00;;;11.20
11424;BMP180;5768;51.476;7.210;2022-09-21T02:40:18;101254.00;;;11.10
11424;BMP180;5768;51.476;7.210;2022-09-21T02:45:26;101245.00;;;11.20
11424;BMP180;5768;51.476;7.210;2022-09-21T02:50:37;101246.00;;;11.10
11424;BMP180;5768;51.476;7.210;2022-09-21T02:55:41;101243.00;;;11.00
11424;BMP180;5768;51.476;7.210;2022-09-21T03:00:55;101239.00;;;11.00
11424;BMP180;5768;51.476;7.210;2022-09-21T03:06:06;101233.00;;;10.90
11424;BMP180;5768;51.476;7.210;2022-09-21T03:11:08;101231.00;;;10.90
11424;BMP180;5768;51.476;7.210;2022-09-21T03:16:12;101245.00;;;10.90
11424;BMP180;5768;51.476;7.210;2022-09-21T03:21:16;101245.00;;;11.00
11424;BMP180;5768;51.476;7.210;2022-09-21T03:26:18;101247.00;;;11.00
11424;BMP180;5768;51.476;7.210;2022-09-21T03:31:22;101248.00;;;11.00
11424;BMP180;5768;51.476;7.210;2022-09-21T03:36:25;101253.00;;;11.00
11424;BMP180;5768;51.476;7.210;2022-09-21T03:41:27;101248.00;;;11.00
11424;BMP180;5768;51.476;7.210;2022-09-21T03:46:29;101252.00;;;10.90
11424;BMP180;5768;51.476;7.210;2022-09-21T03:51:36;101243.00;;;10.90
11424;BMP180;5768;51.476;7.210;2022-09-21T03:56:39;101250.00;;;10.90
11424;BMP180;5768;51.476;7.210;2022-09-21T04:01:41;101239.00;;;10.90
11424;BMP180;5768;51.476;7.210;2022-09-21T04:06:45;101246.00;;;10.80
11424;BMP180;5768;51.476;7.210;2022-09-21T04:11:47;101237.00;;;10.70
11424;BMP180;5768;51.476;7.210;2022-09-21T04:16:50;101253.00;;;10.70
11424;BMP180;5768;51.476;7.210;2022-09-21T04:21:53;101247.00;;;10.60
11424;BMP180;5768;51.476;7.210;2022-09-21T04:26:55;101255.00;;;10.60
11424;BMP180;5768;51.476;7.210;2022-09-21T04:31:58;101264.00;;;10.60
11424;BMP180;5768;51.476;7.210;2022-09-21T04:37:01;101256.00;;;10.50
11424;BMP180;5768;51.476;7.210;2022-09-21T04:42:04;101255.00;;;10.50
11424;BMP180;5768;51.476;7.210;2022-09-21T04:47:07;101254.00;;;10.40
11424;BMP180;5768;51.476;7.210;2022-09-21T04:52:11;101263.00;;;10.40
11424;BMP180;5768;51.476;7.210;2022-09-21T04:57:13;101271.00;;;10.40
11424;BMP180;5768;51.476;7.210;2022-09-21T05:02:15;101265.00;;;10.40
11424;BMP180;5768;51.476;7.210;2022-09-21T05:07:19;101269.00;;;10.40
11424;BMP180;5768;51.476;7.210;2022-09-21T05:12:21;101269.00;;;10.40
11424;BMP180;5768;51.476;7.210;2022-09-21T05:17:23;101276.00;;;10.40
11424;BMP180;5768;51.476;7.210;2022-09-21T05:22:27;101278.00;;;10.40
11424;BMP180;5768;51.476;7.210;2022-09-21T05:27:29;101275.00;;;10.40
11424;BMP180;5768;51.476;7.210;2022-09-21T05:32:44;101282.00;;;10.40
11424;BMP180;5768;51.476;7.210;2022-09-21T05:37:57;101290.00;;;10.50
11424;BMP180;5768;51.476;7.210;2022-09-21T05:43:00;101298.00;;;10.50
11424;BMP180;5768;51.476;7.210;2022-09-21T05:48:12;101294.00;;;10.60
11424;BMP180;5768;51.476;7.210;2022-09-21T05:53:55;101291.00;;;10.80
11424;BMP180;5768;51.476;7.210;2022-09-21T05:59:17;101308.00;;;10.90
11424;BMP180;5768;51.476;7.210;2022-09-21T06:04:24;101311.00;;;11.00
11424;BMP180;5768;51.476;7.210;2022-09-21T06:09:28;101314.00;;;11.20
11424;BMP180;5768;51.476;7.210;2022-09-21T06:14:30;101314.00;;;11.30
11424;BMP180;5768;51.476;7.210;2022-09-21T06:19:32;101325.00;;;11.50
11424;BMP180;5768;51.476;7.210;2022-09-21T06:24:36;101331.00;;;11.60
11424;BMP180;5768;51.476;7.210;2022-09-21T06:29:38;101324.00;;;11.80
11424;BMP180;5768;51.476;7.210;2022-09-21T06:34:40;101323.00;;;11.90
11424;BMP180;5768;51.476;7.210;2022-09-21T06:39:44;101323.00;;;12.10
11424;BMP180;5768;51.476;7.210;2022-09-21T06:44:46;101328.00;;;12.20
11424;BMP180;5768;51.476;7.210;2022-09-21T06:49:48;101330.00;;;12.40
11424;BMP180;5768;51.476;7.210;2022-09-21T06:54:52;101322.00;;;12.50
11424;BMP180;5768;51.476;7.210;2022-09-21T06:59:54;101328.00;;;12.70
11424;BMP180;5768;51.476;7.210;2022-09-21T07:04:56;101333.00;;;12.90
11424;BMP180;5768;51.476;7.210;2022-09-21T07:10:00;101339.00;;;13.10
11424;BMP180;5768;51.476;7.210;2022-09-21T07:15:05;101336.00;;;13.30
11424;BMP180;5768;51.476;7.210;2022-09-21T07:20:08;101339.00;;;13.50
11424;BMP180;5768;51.476;7.210;2022-09-21T07:25:12;101338.00;;;13.70
11424;BMP180;5768;51.476;7.210;2022-09-21T07:30:14;101341.00;;;14.00
11424;BMP180;5768;51.476;7.210;2022-09-21T07:35:16;101350.00;;;14.20
11424;BMP180;5768;51.476;7.210;2022-09-21T07:40:21;101349.00;;;14.40
11424;BMP180;5768;51.476;7.210;2022-09-21T07:45:24;101342.00;;;14.60
11424;BMP180;5768;51.476;7.210;2022-09-21T07:50:26;101346.00;;;14.80
11424;BMP180;5768;51.476;7.210;2022-09-21T07:55:30;101345.00;;;15.00
11424;BMP180;5768;51.476;7.210;2022-09-21T08:00:32;101347.00;;;15.20
11424;BMP180;5768;51.476;7.210;2022-09-21T08:05:35;101355.00;;;15.40
11424;BMP180;5768;51.476;7.210;2022-09-21T08:10:38;101358.00;;;15.60
11424;BMP180;5768;51.476;7.210;2022-09-21T08:15:40;101348.00;;;15.80
11424;BMP180;5768;51.476;7.210;2022-09-21T08:20:43;101348.00;;;16.00
11424;BMP180;5768;51.476;7.210;2022-09-21T08:25:47;101357.00;;;16.20
11424;BMP180;5768;51.476;7.210;2022-09-21T08:30:49;101362.00;;;16.40
11424;BMP180;5768;51.476;7.210;2022-09-21T08:35:52;101364.00;;;16.50
11424;BMP180;5768;51.476;7.210;2022-09-21T08:40:55;101364.00;;;16.60
11424;BMP180;5768;51.476;7.210;2022-09-21T08:46:00;101361.00;;;16.70
11424;BMP180;5768;51.476;7.210;2022-09-21T08:51:09;101366.00;;;16.90
11424;BMP180;5768;51.476;7.210;2022-09-21T08:56:15;101366.00;;;17.00
11424;BMP180;5768;51.476;7.210;2022-09-21T09:01:44;101370.00;;;17.00
11424;BMP180;5768;51.476;7.210;2022-09-21T09:07:03;101368.00;;;17.20
11424;BMP180;5768;51.476;7.210;2022-09-21T09:12:30;101366.00;;;17.30
11424;BMP180;5768;51.476;7.210;2022-09-21T09:17:54;101371.00;;;17.50
11424;BMP180;5768;51.476;7.210;2022-09-21T09:23:06;101376.00;;;17.60
11424;BMP180;5768;51.476;7.210;2022-09-21T09:28:24;101369.00;;;17.70
11424;BMP180;5768;51.476;7.210;2022-09-21T09:33:42;101368.00;;;17.80
11424;BMP180;5768;51.476;7.210;2022-09-21T09:38:56;101377.00;;;17.90
11424;BMP180;5768;51.476;7.210;2022-09-21T09:44:19;101368.00;;;18.00
11424;BMP180;5768;51.476;7.210;2022-09-21T09:49:38;101373.00;;;18.20
11424;BMP180;5768;51.476;7.210;2022-09-21T09:54:41;101373.00;;;18.30
11424;BMP180;5768;51.476;7.210;2022-09-21T09:59:50;101372.00;;;18.60
11424;BMP180;5768;51.476;7.210;2022-09-21T10:04:58;101370.00;;;19.00
11424;BMP180;5768;51.476;7.210;2022-09-21T10:10:23;101380.00;;;19.20
11424;BMP180;5768;51.476;7.210;2022-09-21T10:15:29;101368.00;;;19.40
11424;BMP180;5768;51.476;7.210;2022-09-21T10:20:31;101367.00;;;19.60
11424;BMP180;5768;51.476;7.210;2022-09-21T10:25:34;101369.00;;;19.80
11424;BMP180;5768;51.476;7.210;2022-09-21T10:30:38;101370.00;;;20.20
11424;BMP180;5768;51.476;7.210;2022-09-21T10:35:50;101374.00;;;20.60
11424;BMP180;5768;51.476;7.210;2022-09-21T10:40:53;101373.00;;;20.90
11424;BMP180;5768;51.476;7.210;2022-09-21T10:45:57;101375.00;;;20.90
11424;BMP180;5768;51.476;7.210;2022-09-21T10:50:59;101369.00;;;21.10
11424;BMP180;5768;51.476;7.210;2022-09-21T10:56:06;101369.00;;;21.20
11424;BMP180;5768;51.476;7.210;2022-09-21T11:01:12;101361.00;;;21.40
11424;BMP180;5768;51.476;7.210;2022-09-21T11:06:27;101358.00;;;21.30
11424;BMP180;5768;51.476;7.210;2022-09-21T11:11:45;101350.00;;;21.10
11424;BMP180;5768;51.476;7.210;2022-09-21T11:16:57;101347.00;;;21.00
11424;BMP180;5768;51.476;7.210;2022-09-21T11:22:07;101357.00;;;21.20
11424;BMP180;5768;51.476;7.210;2022-09-21T11:27:16;101349.00;;;21.30
11424;BMP180;5768;51.476;7.210;2022-09-21T11:32:42;101340.00;;;21.90
11424;BMP180;5768;51.476;7.210;2022-09-21T11:37:56;101348.00;;;22.40
11424;BMP180;5768;51.476;7.210;2022-09-21T11:43:19;101336.00;;;22.60
11424;BMP180;5768;51.476;7.210;2022-09-21T11:48:43;101338.00;;;23.20
11424;BMP180;5768;51.476;7.210;2022-09-21T11:54:22;101336.00;;;23.80
11424;BMP180;5768;51.476;7.210;2022-09-21T11:59:48;101334.00;;;24.00
11424;BMP180;5768;51.476;7.210;2022-09-21T12:05:02;101321.00;;;24.50
11424;BMP180;5768;51.476;7.210;2022-09-21T12:10:37;101324.00;;;25.00
11424;BMP180;5768;51.476;7.210;2022-09-21T12:15:46;101321.00;;;25.40
11424;BMP180;5768;51.476;7.210;2022-09-21T12:21:00;101316.00;;;25.90
11424;BMP180;5768;51.476;7.210;2022-09-21T12:26:07;101321.00;;;26.50
11424;BMP180;5768;51.476;7.210;2022-09-21T12:31:15;101314.00;;;27.30
11424;BMP180;5768;51.476;7.210;2022-09-21T12:36:27;101321.00;;;28.00
11424;BMP180;5768;51.476;7.210;2022-09-21T12:41:38;101314.00;;;28.30
11424;BMP180;5768;51.476;7.210;2022-09-21T12:46:50;101317.00;;;28.10
11424;BMP180;5768;51.476;7.210;2022-09-21T12:52:01;101311.00;;;29.10
11424;BMP180;5768;51.476;7.210;2022-09-21T12:57:19;101309.00;;;28.20
11424;BMP180;5768;51.476;7.210;2022-09-21T13:02:34;101305.00;;;28.00
11424;BMP180;5768;51.476;7.210;2022-09-21T13:08:01;101305.00;;;27.40
11424;BMP180;5768;51.476;7.210;2022-09-21T13:13:17;101298.00;;;26.80
11424;BMP180;5768;51.476;7.210;2022-09-21T13:18:27;101299.00;;;26.40
11424;BMP180;5768;51.476;7.210;2022-09-21T13:23:37;101291.00;;;26.80
11424;BMP180;5768;51.476;7.210;2022-09-21T13:29:04;101299.00;;;26.40
11424;BMP180;5768;51.476;7.210;2022-09-21T13:34:38;101292.00;;;28.90
11424;BMP180;5768;51.476;7.210;2022-09-21T13:39:45;101291.00;;;31.60
11424;BMP180;5768;51.476;7.210;2022-09-21T13:44:49;101290.00;;;33.20
11424;BMP180;5768;51.476;7.210;2022-09-21T13:49:51;101283.00;;;33.30
11424;BMP180;5768;51.476;7.210;2022-09-21T13:54:58;101271.00;;;33.20
11424;BMP180;5768;51.476;7.210;2022-09-21T14:00:27;101273.00;;;33.30
11424;BMP180;5768;51.476;7.210;2022-09-21T14:05:38;101277.00;;;34.70
11424;BMP180;5768;51.476;7.210;2022-09-21T14:10:52;101276.00;;;35.20
11424;BMP180;5768;51.476;7.210;2022-09-21T14:22:36;101269.00;;;36.90
11424;BMP180;5768;51.476;7.210;2022-09-21T14:27:43;101273.00;;;37.80
11424;BMP180;5768;51.476;7.210;2022-09-21T14:32:50;101266.00;;;38.90
11424;BMP180;5768;51.476;7.210;2022-09-21T14:37:58;101265.00;;;35.10
11424;BMP180;5768;51.476;7.210;2022-09-21T14:43:07;101264.00;;;34.40
11424;BMP180;5768;51.476;7.210;2022-09-21T14:48:19;101259.00;;;36.20
11424;BMP180;5768;51.476;7.210;2022-09-21T14:53:49;101258.00;;;38.30
11424;BMP180;5768;51.476;7.210;2022-09-21T14:59:22;101253.00;;;39.80
11424;BMP180;5768;51.476;7.210;2022-09-21T15:04:59;101253.00;;;40.80
11424;BMP180;5768;51.476;7.210;2022-09-21T15:10:26;101253.00;;;41.80
11424;BMP180;5768;51.476;7.210;2022-09-21T15:16:07;101240.00;;;42.60
11424;BMP180;5768;51.476;7.210;2022-09-21T15:21:24;101240.00;;;43.50
11424;BMP180;5768;51.476;7.210;2022-09-21T15:26:37;101240.00;;;44.00
11424;BMP180;5768;51.476;7.210;2022-09-21T15:31:41;101233.00;;;43.80
11424;BMP180;5768;51.476;7.210;2022-09-21T15:36:44;101234.00;;;43.60
11424;BMP180;5768;51.476;7.210;2022-09-21T15:42:12;101230.00;;;43.40
11424;BMP180;5768;51.476;7.210;2022-09-21T15:47:22;101217.00;;;43.40
11424;BMP180;5768;51.476;7.210;2022-09-21T15:52:31;101226.00;;;43.20
11424;BMP180;5768;51.476;7.210;2022-09-21T15:57:38;101219.00;;;43.10
11424;BMP180;5768;51.476;7.210;2022-09-21T16:02:57;101223.00;;;42.90
11424;BMP180;5768;51.476;7.210;2022-09-21T16:08:09;101224.00;;;42.60
11424;BMP180;5768;51.476;7.210;2022-09-21T16:13:20;101223.00;;;41.90
11424;BMP180;5768;51.476;7.210;2022-09-21T16:18:47;101217.00;;;41.40
11424;BMP180;5768;51.476;7.210;2022-09-21T16:23:52;101225.00;;;40.70
11424;BMP180;5768;51.476;7.210;2022-09-21T16:29:16;101225.00;;;37.90
11424;BMP180;5768;51.476;7.210;2022-09-21T16:34:30;101221.00;;;33.90
11424;BMP180;5768;51.476;7.210;2022-09-21T16:39:36;101223.00;;;31.20
11424;BMP180;5768;51.476;7.210;2022-09-21T16:44:39;101221.00;;;29.40
11424;BMP180;5768;51.476;7.210;2022-09-21T16:49:46;101210.00;;;28.00
11424;BMP180;5768;51.476;7.210;2022-09-21T16:54:48;101211.00;;;27.10
11424;BMP180;5768;51.476;7.210;2022-09-21T16:59:50;101210.00;;;26.20
11424;BMP180;5768;51.476;7.210;2022-09-21T17:04:54;101210.00;;;25.60
11424;BMP180;5768;51.476;7.210;2022-09-21T17:09:56;101206.00;;;25.00
11424;BMP180;5768;51.476;7.210;2022-09-21T17:15:05;101208.00;;;24.40
11424;BMP180;5768;51.476;7.210;2022-09-21T17:20:33;101203.00;;;23.80
11424;BMP180;5768;51.476;7.210;2022-09-21T17:25:36;101195.00;;;23.20
11424;BMP180;5768;51.476;7.210;2022-09-21T17:30:38;101196.00;;;22.80
11424;BMP180;5768;51.476;7.210;2022-09-21T17:35:43;101206.00;;;22.30
11424;BMP180;5768;51.476;7.210;2022-09-21T17:40:46;101202.00;;;21.90
11424;BMP180;5768;51.476;7.210;2022-09-21T17:45:55;101206.00;;;21.50
11424;BMP180;5768;51.476;7.210;2022-09-21T17:51:01;101210.00;;;21.10
11424;BMP180;5768;51.476;7.210;2022-09-21T17:56:23;101210.00;;;20.70
11424;BMP180;5768;51.476;7.210;2022-09-21T18:01:31;101210.00;;;20.40
11424;BMP180;5768;51.476;7.210;2022-09-21T18:06:36;101199.00;;;20.10
11424;BMP180;5768;51.476;7.210;2022-09-21T18:11:54;101212.00;;;19.90
11424;BMP180;5768;51.476;7.210;2022-09-21T18:17:23;101215.00;;;19.60
11424;BMP180;5768;51.476;7.210;2022-09-21T18:22:45;101209.00;;;19.40
11424;BMP180;5768;51.476;7.210;2022-09-21T18:27:51;101220.00;;;19.20
11424;BMP180;5768;51.476;7.210;2022-09-21T18:33:09;101222.00;;;18.90
11424;BMP180;5768;51.476;7.210;2022-09-21T18:38:23;101211.00;;;18.70
11424;BMP180;5768;51.476;7.210;2022-09-21T18:43:36;101216.00;;;18.50
11424;BMP180;5768;51.476;7.210;2022-09-21T18:48:53;101230.00;;;18.30
11424;BMP180;5768;51.476;7.210;2022-09-21T18:53:58;101215.00;;;18.20
11424;BMP180;5768;51.476;7.210;2022-09-21T18:59:02;101215.00;;;18.00
11424;BMP180;5768;51.476;7.210;2022-09-21T19:04:07;101223.00;;;17.80
11424;BMP180;5768;51.476;7.210;2022-09-21T19:09:28;101226.00;;;17.60
11424;BMP180;5768;51.476;7.210;2022-09-21T19:14:43;101222.00;;;17.50
11424;BMP180;5768;51.476;7.210;2022-09-21T19:20:04;101216.00;;;17.30
11424;BMP180;5768;51.476;7.210;2022-09-21T19:25:19;101218.00;;;17.10
11424;BMP180;5768;51.476;7.210;2022-09-21T19:30:26;101215.00;;;17.00
11424;BMP180;5768;51.476;7.210;2022-09-21T19:35:31;101211.00;;;16.80
11424;BMP180;5768;51.476;7.210;2022-09-21T19:40:37;101214.00;;;16.70
11424;BMP180;5768;51.476;7.210;2022-09-21T19:45:54;101208.00;;;16.60
11424;BMP180;5768;51.476;7.210;2022-09-21T19:51:04;101208.00;;;16.50
11424;BMP180;5768;51.476;7.210;2022-09-21T19:56:12;101208.00;;;16.30
11424;BMP180;5768;51.476;7.210;2022-09-21T20:01:36;101205.00;;;16.20
11424;BMP180;5768;51.476;7.210;2022-09-21T20:06:49;101208.00;;;16.00
11424;BMP180;5768;51.476;7.210;2022-09-21T20:12:06;101212.00;;;15.90
11424;BMP180;5768;51.476;7.210;2022-09-21T20:17:16;101206.00;;;15.80
11424;BMP180;5768;51.476;7.210;2022-09-21T20:22:32;101216.00;;;15.70
11424;BMP180;5768;51.476;7.210;2022-09-21T20:27:39;101204.00;;;15.60
11424;BMP180;5768;51.476;7.210;2022-09-21T20:32:48;101201.00;;;15.50
11424;BMP180;5768;51.476;7.210;2022-09-21T20:37:51;101206.00;;;15.40
11424;BMP180;5768;51.476;7.210;2022-09-21T20:42:55;101207.00;;;15.30
11424;BMP180;5768;51.476;7.210;2022-09-21T20:47:58;101203.00;;;15.20
11424;BMP180;5768;51.476;7.210;2022-09-21T20:53:13;101204.00;;;15.10
11424;BMP180;5768;51.476;7.210;2022-09-21T20:58:16;101205.00;;;15.00
11424;BMP180;5768;51.476;7.210;2022-09-21T21:03:18;101200.00;;;14.90
11424;BMP180;5768;51.476;7.210;2022-09-21T21:08:21;101192.00;;;14.70
11424;BMP180;5768;51.476;7.210;2022-09-21T21:13:27;101202.00;;;14.60
11424;BMP180;5768;51.476;7.210;2022-09-21T21:18:29;101201.00;;;14.60
11424;BMP180;5768;51.476;7.210;2022-09-21T21:23:32;101199.00;;;14.50
11424;BMP180;5768;51.476;7.210;2022-09-21T21:28:55;101204.00;;;14.30
11424;BMP180;5768;51.476;7.210;2022-09-21T21:33:58;101208.00;;;14.30
11424;BMP180;5768;51.476;7.210;2022-09-21T21:39:00;101197.00;;;14.20
11424;BMP180;5768;51.476;7.210;2022-09-21T21:44:03;101200.00;;;14.10
11424;BMP180;5768;51.476;7.210;2022-09-21T21:49:05;101191.00;;;14.10
11424;BMP180;5768;51.476;7.210;2022-09-21T21:54:08;101183.00;;;14.00
11424;BMP180;5768;51.476;7.210;2022-09-21T21:59:11;101185.00;;;13.90
11424;BMP180;5768;51.476;7.210;2022-09-21T22:04:14;101185.00;;;13.90
11424;BMP180;5768;51.476;7.210;2022-09-21T22:09:16;101187.00;;;13.80
11424;BMP180;5768;51.476;7.210;2022-09-21T22:14:20;101183.00;;;13.70
11424;BMP180;5768;51.476;7.210;2022-09-21T22:19:22;101175.00;;;13.70
11424;BMP180;5768;51.476;7.210;2022-09-21T22:24:25;101172.00;;;13.60
11424;BMP180;5768;51.476;7.210;2022-09-21T22:29:28;101178.00;;;13.60
11424;BMP180;5768;51.476;7.210;2022-09-21T22:34:30;101165.00;;;13.50
11424;BMP180;5768;51.476;7.210;2022-09-21T22:39:33;101166.00;;;13.50
11424;BMP180;5768;51.476;7.210;2022-09-21T22:44:36;101168.00;;;13.40
11424;BMP180;5768;51.476;7.210;2022-09-21T22:49:38;101163.00;;;13.40
11424;BMP180;5768;51.476;7.210;2022-09-21T22:54:41;101165.00;;;13.30
11424;BMP180;5768;51.476;7.210;2022-09-21T22:59:44;101163.00;;;13.30
11424;BMP180;5768;51.476;7.210;2022-09-21T23:04:46;101167.00;;;13.30
11424;BMP180;5768;51.476;7.210;2022-09-21T23:09:49;101167.00;;;13.20
11424;BMP180;5768;51.476;7.210;2022-09-21T23:14:52;101158.00;;;13.20
11424;BMP180;5768;51.476;7.210;2022-09-21T23:19:54;101158.00;;;13.20
11424;BMP180;5768;51.476;7.210;2022-09-21T23:24:56;101151.00;;;13.00
11424;BMP180;5768;51.476;7.210;2022-09-21T23:30:00;101163.00;;;13.00
11424;BMP180;5768;51.476;7.210;2022-09-21T23:35:03;101154.00;;;12.90
11424;BMP180;5768;51.476;7.210;2022-09-21T23:40:07;101156.00;;;12.90
11424;BMP180;5768;51.476;7.210;2022-09-21T23:45:11;101159.00;;;12.80
11424;BMP180;5768;51.476;7.210;2022-09-21T23:50:14;101158.00;;;12.70
11424;BMP180;5768;51.476;7.210;2022-09-21T23:55:16;101153.00;;;12.70
